createdAt,value
2019-03-09T00:00:24.301Z,4.40
2019-03-09T00:02:51.589Z,4.30
2019-03-09T00:05:18.487Z,4.30
2019-03-09T00:07:45.413Z,4.20
2019-03-09T00:10:12.311Z,4.30
2019-03-09T00:12:39.221Z,4.30
2019-03-09T00:15:07.332Z,4.30
2019-03-09T00:17:34.213Z,4.50
2019-03-09T00:20:01.124Z,4.40
2019-03-09T00:22:28.101Z,4.50
2019-03-09T00:24:56.842Z,4.40
2019-03-09T00:27:30.121Z,4.30
2019-03-09T00:30:04.647Z,4.40
2019-03-09T00:32:31.570Z,4.30
2019-03-09T00:34:58.498Z,4.30
2019-03-09T00:38:47.761Z,4.30
2019-03-09T00:41:14.560Z,4.20
2019-03-09T00:43:41.577Z,4.20
2019-03-09T00:46:08.366Z,4.20
2019-03-09T00:48:35.301Z,4.20
2019-03-09T00:51:02.085Z,4.20
2019-03-09T00:53:28.918Z,4.10
2019-03-09T00:55:55.706Z,4.10
2019-03-09T00:58:22.521Z,4.10
2019-03-09T01:00:49.336Z,4.00
2019-03-09T01:03:16.156Z,4.10
2019-03-09T01:05:43.339Z,4.00
2019-03-09T01:08:10.386Z,4.00
2019-03-09T01:10:37.181Z,4.00
2019-03-09T01:13:04.005Z,4.10
2019-03-09T01:15:30.893Z,4.10
2019-03-09T01:17:57.717Z,4.10
2019-03-09T01:20:24.652Z,4.00
2019-03-09T01:22:51.450Z,3.90
2019-03-09T01:25:18.300Z,3.90
2019-03-09T01:27:45.188Z,3.90
2019-03-09T01:30:15.520Z,4.00
2019-03-09T01:32:42.310Z,4.00
2019-03-09T01:35:09.200Z,4.00
2019-03-09T01:37:36.017Z,4.00
2019-03-09T01:40:06.105Z,4.00
2019-03-09T01:42:32.933Z,4.00
2019-03-09T01:44:59.718Z,4.00
2019-03-09T01:47:26.533Z,4.00
2019-03-09T01:49:53.325Z,4.00
2019-03-09T01:52:20.148Z,4.00
2019-03-09T01:54:46.928Z,3.90
2019-03-09T01:57:16.056Z,3.90
2019-03-09T01:59:42.746Z,3.90
2019-03-09T02:02:09.532Z,3.90
2019-03-09T02:04:36.345Z,3.90
2019-03-09T02:07:03.169Z,3.90
2019-03-09T02:09:29.948Z,4.00
2019-03-09T02:11:56.764Z,4.00
2019-03-09T02:14:23.587Z,3.90
2019-03-09T02:16:50.734Z,3.90
2019-03-09T02:19:17.545Z,3.90
2019-03-09T02:21:45.709Z,3.90
2019-03-09T02:24:12.500Z,3.90
2019-03-09T02:26:39.320Z,3.90
2019-03-09T02:29:06.143Z,3.90
2019-03-09T02:31:32.929Z,4.00
2019-03-09T02:33:59.752Z,4.10
2019-03-09T02:36:26.629Z,4.10
2019-03-09T02:38:55.254Z,4.20
2019-03-09T02:41:22.061Z,4.20
2019-03-09T02:43:48.980Z,4.20
2019-03-09T02:46:15.757Z,4.30
2019-03-09T02:48:42.577Z,4.30
2019-03-09T02:51:09.396Z,4.40
2019-03-09T02:53:36.183Z,4.30
2019-03-09T02:56:02.992Z,4.30
2019-03-09T02:58:29.811Z,4.40
2019-03-09T03:01:16.925Z,4.40
2019-03-09T03:03:43.789Z,4.40
2019-03-09T03:06:10.574Z,4.30
2019-03-09T03:08:37.401Z,4.30
2019-03-09T03:11:04.222Z,4.40
2019-03-09T03:13:30.996Z,4.50
2019-03-09T03:15:57.817Z,4.60
2019-03-09T03:18:24.636Z,4.60
2019-03-09T03:20:51.415Z,4.70
2019-03-09T03:23:18.233Z,4.60
2019-03-09T03:25:45.058Z,4.70
2019-03-09T03:28:11.911Z,4.70
2019-03-09T03:30:38.761Z,4.70
2019-03-09T03:33:05.596Z,4.70
2019-03-09T03:35:33.363Z,4.80
2019-03-09T03:38:00.213Z,4.80
2019-03-09T03:40:27.000Z,4.70
2019-03-09T03:42:53.817Z,4.60
2019-03-09T03:45:20.640Z,4.60
2019-03-09T03:47:47.420Z,4.70
2019-03-09T03:50:14.449Z,4.70
2019-03-09T03:52:41.241Z,4.80
2019-03-09T03:55:09.165Z,4.80
2019-03-09T03:57:35.988Z,4.80
2019-03-09T04:00:06.466Z,4.80
2019-03-09T04:02:33.288Z,4.90
2019-03-09T04:05:00.119Z,4.90
2019-03-09T04:07:27.187Z,4.80
2019-03-09T04:09:54.000Z,4.80
2019-03-09T04:12:20.820Z,5.00
2019-03-09T04:14:47.598Z,5.10
2019-03-09T04:17:14.417Z,5.20
2019-03-09T04:19:42.604Z,5.10
2019-03-09T04:22:09.378Z,5.00
2019-03-09T04:24:37.991Z,5.00
2019-03-09T04:27:04.810Z,5.10
2019-03-09T04:29:31.590Z,5.30
2019-03-09T04:31:58.396Z,5.50
2019-03-09T04:34:25.280Z,5.60
2019-03-09T04:37:01.241Z,5.70
2019-03-09T04:39:28.397Z,5.80
2019-03-09T04:41:55.480Z,5.90
2019-03-09T04:44:22.297Z,6.00
2019-03-09T04:46:49.080Z,6.00
2019-03-09T04:49:15.900Z,6.10
2019-03-09T04:51:42.706Z,6.20
2019-03-09T04:54:09.513Z,6.20
2019-03-09T04:56:36.341Z,6.20
2019-03-09T04:59:03.123Z,6.20
2019-03-09T05:01:29.949Z,6.20
2019-03-09T05:04:16.756Z,6.20
2019-03-09T05:06:43.580Z,6.20
2019-03-09T05:09:30.920Z,6.20
2019-03-09T05:11:57.745Z,6.10
2019-03-09T05:14:24.560Z,6.30
2019-03-09T05:16:51.343Z,6.30
2019-03-09T05:19:18.161Z,6.30
2019-03-09T05:21:44.941Z,6.30
2019-03-09T05:24:11.761Z,6.30
2019-03-09T05:26:38.540Z,6.30
2019-03-09T05:29:05.374Z,6.30
2019-03-09T05:31:32.148Z,6.30
2019-03-09T05:33:58.972Z,6.30
2019-03-09T05:36:25.748Z,6.20
2019-03-09T05:38:52.605Z,6.20
2019-03-09T05:41:19.384Z,6.20
2019-03-09T05:43:46.207Z,6.20
2019-03-09T05:46:13.033Z,6.20
2019-03-09T05:48:39.812Z,6.20
2019-03-09T05:51:06.631Z,6.30
2019-03-09T05:53:33.411Z,6.30
2019-03-09T05:56:00.241Z,6.30
2019-03-09T05:58:27.056Z,6.30
2019-03-09T06:00:53.837Z,6.30
2019-03-09T06:03:20.651Z,6.40
2019-03-09T06:05:48.977Z,6.40
2019-03-09T06:08:15.749Z,6.40
2019-03-09T06:10:42.577Z,6.50
2019-03-09T06:13:09.356Z,6.50
2019-03-09T06:15:36.181Z,6.60
2019-03-09T06:18:02.977Z,6.60
2019-03-09T06:20:29.800Z,6.60
2019-03-09T06:22:56.600Z,6.70
2019-03-09T06:25:23.443Z,6.70
2019-03-09T06:27:50.208Z,6.80
2019-03-09T06:30:17.428Z,6.90
2019-03-09T06:33:04.369Z,6.90
2019-03-09T06:35:31.189Z,6.90
2019-03-09T06:38:30.681Z,7.00
2019-03-09T06:41:03.006Z,7.00
2019-03-09T06:43:26.188Z,7.10
2019-03-09T06:45:53.006Z,7.10
2019-03-09T06:48:19.795Z,7.20
2019-03-09T06:50:46.614Z,7.30
2019-03-09T06:53:13.383Z,7.30
2019-03-09T06:55:40.215Z,7.30
2019-03-09T06:58:07.000Z,7.40
2019-03-09T07:00:35.921Z,7.50
2019-03-09T07:03:02.704Z,7.50
2019-03-09T07:05:29.511Z,7.50
2019-03-09T07:07:56.531Z,7.60
2019-03-09T07:10:23.298Z,7.60
2019-03-09T07:12:50.114Z,7.60
2019-03-09T07:15:23.303Z,7.70
2019-03-09T07:17:51.528Z,7.70
2019-03-09T07:20:18.316Z,7.70
2019-03-09T07:22:45.133Z,7.60
2019-03-09T07:25:12.033Z,7.70
2019-03-09T07:27:38.840Z,7.70
2019-03-09T07:30:11.935Z,7.70
2019-03-09T07:32:38.716Z,7.60
2019-03-09T07:35:07.247Z,7.50
2019-03-09T07:37:34.026Z,7.40
2019-03-09T07:40:00.947Z,7.20
2019-03-09T07:42:27.749Z,7.10
2019-03-09T07:44:54.564Z,7.00
2019-03-09T07:47:21.399Z,6.90
2019-03-09T07:49:48.517Z,6.80
2019-03-09T07:52:30.365Z,6.80
2019-03-09T07:54:57.151Z,6.90
2019-03-09T07:57:23.968Z,7.00
2019-03-09T07:59:50.793Z,7.00
2019-03-09T08:02:17.583Z,7.00
2019-03-09T08:04:44.430Z,7.00
2019-03-09T08:07:11.233Z,7.00
2019-03-09T08:09:38.049Z,7.00
2019-03-09T08:12:04.869Z,7.00
2019-03-09T08:14:31.658Z,7.00
2019-03-09T08:16:58.501Z,7.00
2019-03-09T08:19:25.317Z,7.10
2019-03-09T08:21:52.160Z,7.30
2019-03-09T08:24:18.982Z,7.30
2019-03-09T08:26:45.778Z,7.40
2019-03-09T08:29:12.634Z,7.40
2019-03-09T08:31:39.520Z,7.40
2019-03-09T08:34:06.361Z,7.40
2019-03-09T08:36:35.014Z,7.50
2019-03-09T08:39:01.813Z,7.50
2019-03-09T08:41:28.814Z,7.50
2019-03-09T08:43:56.193Z,7.50
2019-03-09T08:46:23.000Z,7.50
2019-03-09T08:48:49.886Z,7.60
2019-03-09T08:51:16.703Z,7.70
2019-03-09T08:53:43.572Z,7.70
2019-03-09T08:56:12.746Z,7.80
2019-03-09T08:58:39.587Z,7.80
2019-03-09T09:01:06.358Z,7.90
2019-03-09T09:03:33.150Z,7.90
2019-03-09T09:05:59.965Z,8.00
2019-03-09T09:08:26.744Z,8.00
2019-03-09T09:10:53.585Z,8.10
2019-03-09T09:13:20.381Z,8.10
2019-03-09T09:15:47.201Z,8.20
2019-03-09T09:18:14.001Z,8.30
2019-03-09T09:20:40.853Z,8.40
2019-03-09T09:23:09.650Z,8.60
2019-03-09T09:25:36.478Z,8.60
2019-03-09T09:28:03.365Z,8.60
2019-03-09T09:30:30.483Z,8.60
2019-03-09T09:32:57.627Z,8.60
2019-03-09T09:35:24.430Z,8.50
2019-03-09T09:37:51.893Z,8.60
2019-03-09T09:40:23.244Z,8.60
2019-03-09T09:42:50.138Z,8.70
2019-03-09T09:45:16.961Z,8.90
2019-03-09T09:47:43.799Z,9.00
2019-03-09T09:50:12.533Z,9.00
2019-03-09T09:52:39.368Z,8.90
2019-03-09T09:55:09.170Z,9.00
2019-03-09T09:57:35.942Z,9.00
2019-03-09T10:00:05.508Z,9.00
2019-03-09T10:02:32.309Z,9.10
2019-03-09T10:04:59.098Z,9.10
2019-03-09T10:07:25.972Z,9.20
2019-03-09T10:09:52.856Z,9.20
2019-03-09T10:12:19.637Z,9.30
2019-03-09T10:14:46.474Z,9.30
2019-03-09T10:17:13.498Z,9.40
2019-03-09T10:19:40.288Z,9.50
2019-03-09T10:22:07.108Z,9.70
2019-03-09T10:24:34.004Z,9.80
2019-03-09T10:27:00.788Z,9.90
2019-03-09T10:29:27.688Z,10.00
2019-03-09T10:31:54.537Z,10.00
2019-03-09T10:34:21.329Z,10.00
2019-03-09T10:36:48.142Z,10.10
2019-03-09T10:39:14.965Z,10.10
2019-03-09T10:41:42.402Z,10.10
2019-03-09T10:44:09.221Z,10.10
2019-03-09T10:46:36.040Z,10.10
2019-03-09T10:49:02.825Z,10.10
2019-03-09T10:51:29.670Z,10.10
2019-03-09T10:53:56.479Z,10.00
2019-03-09T10:56:23.278Z,10.00
2019-03-09T10:58:50.100Z,9.90
2019-03-09T11:01:16.936Z,9.90
2019-03-09T11:03:43.720Z,9.80
2019-03-09T11:06:10.611Z,9.90
2019-03-09T11:08:37.396Z,9.80
2019-03-09T11:11:04.225Z,9.90
2019-03-09T11:13:31.014Z,9.90
2019-03-09T11:15:58.640Z,10.00
2019-03-09T11:18:25.468Z,10.00
2019-03-09T11:20:52.257Z,10.00
2019-03-09T11:23:19.085Z,10.00
2019-03-09T11:25:45.872Z,10.00
2019-03-09T11:28:12.734Z,10.00
2019-03-09T11:30:39.527Z,10.10
2019-03-09T11:33:06.336Z,10.00
2019-03-09T11:35:34.441Z,9.90
2019-03-09T11:38:01.261Z,9.90
2019-03-09T11:40:28.102Z,9.90
2019-03-09T11:42:54.913Z,9.90
2019-03-09T11:45:22.061Z,9.90
2019-03-09T11:47:48.885Z,9.90
2019-03-09T11:50:16.068Z,10.00
2019-03-09T11:52:42.906Z,10.10
2019-03-09T11:55:11.017Z,10.20
2019-03-09T11:57:39.125Z,10.20
2019-03-09T12:00:18.552Z,10.20
2019-03-09T12:02:45.500Z,10.20
2019-03-09T12:05:12.328Z,10.20
2019-03-09T12:07:39.119Z,10.20
2019-03-09T12:10:09.144Z,10.40
2019-03-09T12:12:35.973Z,10.50
2019-03-09T12:15:04.777Z,10.50
2019-03-09T12:17:31.637Z,10.50
2019-03-09T12:19:58.448Z,10.60
2019-03-09T12:22:25.268Z,10.60
2019-03-09T12:24:52.214Z,10.70
2019-03-09T12:27:19.034Z,10.90
2019-03-09T12:29:45.834Z,11.00
2019-03-09T12:32:12.674Z,11.00
2019-03-09T12:34:39.484Z,11.10
2019-03-09T12:37:06.334Z,11.20
2019-03-09T12:39:33.148Z,11.20
2019-03-09T12:41:59.972Z,11.20
2019-03-09T12:44:26.793Z,11.30
2019-03-09T12:46:53.613Z,11.50
2019-03-09T12:49:20.397Z,11.60
2019-03-09T12:51:47.221Z,11.60
2019-03-09T12:54:14.040Z,11.70
2019-03-09T12:56:40.828Z,11.70
2019-03-09T12:59:07.657Z,11.80
2019-03-09T13:01:34.452Z,11.90
2019-03-09T13:04:01.284Z,12.00
2019-03-09T13:06:28.070Z,11.90
2019-03-09T13:08:54.905Z,11.90
2019-03-09T13:11:21.709Z,11.80
2019-03-09T13:13:48.536Z,11.90
2019-03-09T13:16:15.328Z,11.90
2019-03-09T13:18:42.115Z,11.90
2019-03-09T13:21:09.040Z,12.00
2019-03-09T13:23:37.821Z,12.10
2019-03-09T13:26:04.661Z,12.20
2019-03-09T13:28:31.484Z,12.20
2019-03-09T13:30:58.271Z,12.10
2019-03-09T13:33:25.101Z,12.00
2019-03-09T13:35:51.885Z,12.10
2019-03-09T13:38:18.729Z,12.10
2019-03-09T13:40:45.549Z,12.00
2019-03-09T13:43:12.369Z,11.90
2019-03-09T13:45:39.275Z,11.80
2019-03-09T13:48:06.058Z,11.80
2019-03-09T13:50:32.864Z,11.80
2019-03-09T13:52:59.803Z,11.70
2019-03-09T13:55:26.807Z,11.60
2019-03-09T13:57:54.264Z,11.40
2019-03-09T14:00:23.024Z,11.40
2019-03-09T14:02:49.891Z,11.30
2019-03-09T14:05:16.721Z,11.20
2019-03-09T14:07:43.542Z,11.20
2019-03-09T14:10:14.936Z,11.10
2019-03-09T14:12:41.768Z,11.10
2019-03-09T14:15:15.178Z,11.10
2019-03-09T14:17:42.113Z,11.00
2019-03-09T14:20:10.837Z,11.00
2019-03-09T14:22:37.631Z,11.00
2019-03-09T14:25:06.452Z,11.00
2019-03-09T14:27:33.248Z,10.90
2019-03-09T14:30:00.065Z,10.80
2019-03-09T14:32:26.850Z,10.80
2019-03-09T14:34:53.669Z,10.80
2019-03-09T14:37:20.448Z,10.70
2019-03-09T14:39:47.260Z,10.60
2019-03-09T14:42:14.041Z,10.60
2019-03-09T14:44:40.908Z,10.60
2019-03-09T14:47:07.697Z,10.60
2019-03-09T14:49:34.512Z,10.60
2019-03-09T14:52:01.294Z,10.60
2019-03-09T14:54:28.089Z,10.60
2019-03-09T14:56:54.897Z,10.60
2019-03-09T14:59:22.172Z,10.60
2019-03-09T15:01:48.986Z,10.60
2019-03-09T15:04:15.810Z,10.60
2019-03-09T15:06:42.610Z,10.60
2019-03-09T15:09:09.424Z,10.70
2019-03-09T15:11:36.209Z,10.60
2019-03-09T15:14:03.124Z,10.70
2019-03-09T15:16:29.947Z,10.60
2019-03-09T15:18:56.732Z,10.60
2019-03-09T15:21:24.110Z,10.60
2019-03-09T15:23:51.131Z,10.60
2019-03-09T15:26:17.945Z,10.60
2019-03-09T15:28:44.742Z,10.50
2019-03-09T15:31:11.592Z,10.60
2019-03-09T15:33:38.404Z,10.60
2019-03-09T15:36:05.185Z,10.50
2019-03-09T15:38:32.006Z,10.60
2019-03-09T15:40:58.809Z,10.60
2019-03-09T15:43:25.616Z,10.60
2019-03-09T15:45:52.495Z,10.50
2019-03-09T15:48:19.304Z,10.40
2019-03-09T15:50:46.120Z,10.40
2019-03-09T15:53:32.647Z,10.30
2019-03-09T15:55:59.468Z,10.30
2019-03-09T15:58:26.256Z,10.30
2019-03-09T16:00:53.083Z,10.30
2019-03-09T16:03:19.940Z,10.30
2019-03-09T16:05:46.722Z,10.20
2019-03-09T16:08:13.537Z,10.20
2019-03-09T16:10:40.321Z,10.20
2019-03-09T16:13:07.149Z,10.00
2019-03-09T16:15:33.924Z,9.70
2019-03-09T16:18:00.749Z,9.40
2019-03-09T16:20:28.632Z,9.20
2019-03-09T16:22:55.656Z,9.20
2019-03-09T16:25:22.441Z,9.10
2019-03-09T16:27:49.260Z,9.00
2019-03-09T16:30:18.482Z,9.00
2019-03-09T16:32:47.244Z,9.00
2019-03-09T16:35:14.055Z,9.10
2019-03-09T16:37:40.880Z,9.20
2019-03-09T16:40:10.573Z,9.20
2019-03-09T16:42:37.392Z,9.20
2019-03-09T16:45:05.178Z,9.20
2019-03-09T16:47:32.037Z,9.20
2019-03-09T16:49:58.826Z,9.30
2019-03-09T16:52:25.644Z,9.20
2019-03-09T16:54:52.440Z,9.10
2019-03-09T16:57:19.256Z,9.10
2019-03-09T16:59:46.038Z,9.10
2019-03-09T17:02:12.855Z,9.10
2019-03-09T17:04:39.678Z,9.10
2019-03-09T17:07:06.456Z,9.10
2019-03-09T17:09:33.289Z,9.10
2019-03-09T17:12:00.069Z,9.10
2019-03-09T17:14:26.897Z,9.00
2019-03-09T17:16:53.721Z,9.10
2019-03-09T17:19:20.516Z,9.10
2019-03-09T17:21:47.346Z,9.10
2019-03-09T17:24:14.133Z,9.10
2019-03-09T17:26:40.966Z,9.10
2019-03-09T17:29:07.788Z,9.10
2019-03-09T17:31:34.563Z,9.10
2019-03-09T17:34:01.380Z,9.10
2019-03-09T17:36:28.165Z,9.10
2019-03-09T17:38:55.138Z,9.20
2019-03-09T17:41:21.904Z,9.10
2019-03-09T17:43:48.737Z,9.20
2019-03-09T17:46:15.553Z,9.30
2019-03-09T17:48:42.346Z,9.30
2019-03-09T17:51:09.164Z,9.30
2019-03-09T17:53:35.945Z,9.30
2019-03-09T17:56:02.769Z,9.40
2019-03-09T17:58:29.592Z,9.30
2019-03-09T18:00:56.382Z,9.20
2019-03-09T18:03:23.197Z,9.20
2019-03-09T18:05:50.024Z,9.20
2019-03-09T18:08:16.939Z,9.20
2019-03-09T18:10:49.344Z,9.30
2019-03-09T18:13:16.129Z,9.30
2019-03-09T18:15:42.944Z,9.20
2019-03-09T18:18:09.724Z,9.20
2019-03-09T18:20:37.432Z,9.10
2019-03-09T18:23:04.212Z,9.20
2019-03-09T18:25:31.030Z,9.20
2019-03-09T18:27:57.854Z,9.20
2019-03-09T18:30:24.683Z,9.10
2019-03-09T18:32:51.501Z,9.10
2019-03-09T18:35:18.485Z,9.00
2019-03-09T18:37:45.312Z,9.20
2019-03-09T18:40:13.902Z,9.20
2019-03-09T18:42:40.720Z,9.20
2019-03-09T18:45:19.144Z,9.20
2019-03-09T18:47:45.958Z,9.20
2019-03-09T18:50:13.082Z,9.10
2019-03-09T18:52:40.093Z,9.10
2019-03-09T18:55:07.628Z,9.10
2019-03-09T18:57:34.422Z,9.10
2019-03-09T19:00:01.440Z,9.10
2019-03-09T19:02:28.225Z,9.10
2019-03-09T19:04:55.050Z,9.20
2019-03-09T19:07:21.871Z,9.30
2019-03-09T19:09:48.653Z,9.30
2019-03-09T19:12:15.486Z,9.40
2019-03-09T19:14:42.303Z,9.40
2019-03-09T19:17:09.087Z,9.30
2019-03-09T19:19:35.919Z,9.30
2019-03-09T19:22:02.807Z,9.40
2019-03-09T19:24:29.584Z,9.40
2019-03-09T19:26:56.405Z,9.40
2019-03-09T19:29:23.253Z,9.30
2019-03-09T19:31:50.040Z,9.30
2019-03-09T19:34:16.865Z,9.30
2019-03-09T19:36:43.649Z,9.30
2019-03-09T19:39:10.500Z,9.30
2019-03-09T19:41:37.289Z,9.40
2019-03-09T19:44:04.108Z,9.50
2019-03-09T19:46:30.949Z,9.50
2019-03-09T19:48:57.732Z,9.60
2019-03-09T19:51:24.768Z,9.60
2019-03-09T19:53:51.660Z,9.50
2019-03-09T19:56:18.478Z,9.60
2019-03-09T19:58:45.341Z,9.60
2019-03-09T20:01:12.152Z,9.70
2019-03-09T20:03:38.970Z,9.70
2019-03-09T20:06:05.764Z,9.60
2019-03-09T20:08:32.579Z,9.60
2019-03-09T20:10:59.485Z,9.60
2019-03-09T20:13:26.271Z,9.60
2019-03-09T20:15:53.168Z,9.60
2019-03-09T20:18:20.061Z,9.60
2019-03-09T20:20:46.846Z,9.80
2019-03-09T20:23:13.669Z,9.90
2019-03-09T20:25:40.484Z,9.90
2019-03-09T20:28:07.341Z,9.80
2019-03-09T20:30:34.152Z,9.90
2019-03-09T20:33:00.972Z,9.90
2019-03-09T20:35:27.772Z,10.00
2019-03-09T20:37:56.341Z,10.00
2019-03-09T20:40:23.246Z,10.10
2019-03-09T20:42:50.081Z,10.10
2019-03-09T20:45:21.546Z,10.10
2019-03-09T20:47:48.376Z,10.10
2019-03-09T20:50:16.469Z,10.20
2019-03-09T20:52:43.294Z,10.20
2019-03-09T20:55:10.110Z,10.20
2019-03-09T20:57:36.893Z,10.20
2019-03-09T21:00:12.313Z,10.30
2019-03-09T21:02:39.809Z,10.20
2019-03-09T21:05:06.721Z,10.20
2019-03-09T21:07:33.545Z,10.20
2019-03-09T21:10:00.379Z,10.20
2019-03-09T21:12:27.172Z,10.10
2019-03-09T21:14:53.988Z,10.10
2019-03-09T21:17:20.775Z,10.10
2019-03-09T21:19:48.361Z,10.00
2019-03-09T21:22:15.180Z,10.10
2019-03-09T21:24:41.977Z,10.20
2019-03-09T21:27:09.111Z,10.20
2019-03-09T21:29:35.933Z,10.30
2019-03-09T21:32:02.714Z,10.30
2019-03-09T21:34:29.734Z,10.30
2019-03-09T21:36:56.585Z,10.30
2019-03-09T21:39:23.440Z,10.30
2019-03-09T21:41:50.312Z,10.40
2019-03-09T21:44:17.128Z,10.40
2019-03-09T21:46:43.945Z,10.40
2019-03-09T21:49:11.921Z,10.50
2019-03-09T21:51:38.746Z,10.40
2019-03-09T21:54:05.572Z,10.50
2019-03-09T21:56:32.389Z,10.60
2019-03-09T21:58:59.168Z,10.60
2019-03-09T22:01:25.993Z,10.50
2019-03-09T22:03:52.813Z,10.50
2019-03-09T22:06:19.593Z,10.60
2019-03-09T22:08:46.855Z,10.60
2019-03-09T22:11:13.645Z,10.60
2019-03-09T22:13:40.468Z,10.50
2019-03-09T22:16:07.253Z,10.50
2019-03-09T22:18:34.070Z,10.40
2019-03-09T22:21:00.848Z,10.40
2019-03-09T22:23:27.660Z,10.40
2019-03-09T22:25:54.460Z,10.40
2019-03-09T22:28:21.285Z,10.40
2019-03-09T22:30:48.178Z,10.30
2019-03-09T22:33:14.989Z,10.30
2019-03-09T22:35:41.764Z,10.30
2019-03-09T22:38:08.550Z,10.30
2019-03-09T22:40:35.401Z,10.20
2019-03-09T22:43:02.195Z,10.30
2019-03-09T22:45:29.013Z,10.40
2019-03-09T22:47:55.787Z,10.40
2019-03-09T22:50:24.420Z,10.40
2019-03-09T22:52:51.205Z,10.50
2019-03-09T22:55:18.020Z,10.60
2019-03-09T22:57:44.821Z,10.60
2019-03-09T23:00:17.149Z,10.50
2019-03-09T23:02:45.006Z,10.50
2019-03-09T23:05:12.464Z,10.50
2019-03-09T23:07:39.289Z,10.40
2019-03-09T23:10:14.319Z,10.50
2019-03-09T23:12:41.141Z,10.40
2019-03-09T23:15:10.976Z,10.30
2019-03-09T23:17:37.757Z,10.30
2019-03-09T23:20:09.728Z,10.30
2019-03-09T23:22:36.517Z,10.40
2019-03-09T23:25:04.041Z,10.30
2019-03-09T23:27:30.820Z,10.40
2019-03-09T23:29:57.644Z,10.40
2019-03-09T23:32:24.441Z,10.30
2019-03-09T23:34:51.268Z,10.30
2019-03-09T23:37:18.090Z,10.30
2019-03-09T23:39:44.900Z,10.30
2019-03-09T23:42:11.737Z,10.30
2019-03-09T23:44:38.522Z,10.20
2019-03-09T23:47:05.342Z,10.20
2019-03-09T23:49:32.121Z,10.30
2019-03-09T23:51:58.953Z,10.30
2019-03-09T23:54:25.769Z,10.30
2019-03-09T23:56:52.554Z,10.20
2019-03-09T23:59:19.369Z,10.20
